createdAt,value
2023-03-06T00:00:05.532Z,993.92
2023-03-06T00:01:05.583Z,993.86
2023-03-06T00:02:05.659Z,993.89
2023-03-06T00:03:05.734Z,993.87
2023-03-06T00:04:05.904Z,993.88
2023-03-06T00:05:05.910Z,993.88
2023-03-06T00:06:06.019Z,993.86
2023-03-06T00:07:06.066Z,993.86
2023-03-06T00:08:06.167Z,993.85
2023-03-06T00:09:06.317Z,993.84
2023-03-06T00:10:06.337Z,993.80
2023-03-06T00:11:06.403Z,993.80
2023-03-06T00:12:06.503Z,993.79
2023-03-06T00:13:06.578Z,993.80
2023-03-06T00:14:06.680Z,993.77
2023-03-06T00:15:06.785Z,993.75
2023-03-06T00:16:06.875Z,993.72
2023-03-06T00:17:06.936Z,993.71
2023-03-06T00:18:07.038Z,993.71
2023-03-06T00:19:07.109Z,993.70
2023-03-06T00:20:07.212Z,993.68
2023-03-06T00:21:07.263Z,993.70
2023-03-06T00:22:07.345Z,993.69
2023-03-06T00:23:07.422Z,993.65
2023-03-06T00:24:07.526Z,993.67
2023-03-06T00:25:07.604Z,993.64
2023-03-06T00:26:07.693Z,993.62
2023-03-06T00:27:07.763Z,993.61
2023-03-06T00:28:07.831Z,993.65
2023-03-06T00:29:07.888Z,993.58
2023-03-06T00:30:07.976Z,993.59
2023-03-06T00:31:08.068Z,993.57
2023-03-06T00:32:08.131Z,993.57
2023-03-06T00:33:08.172Z,993.56
2023-03-06T00:34:08.271Z,993.57
2023-03-06T00:35:08.350Z,993.57
2023-03-06T00:36:08.413Z,993.56
2023-03-06T00:37:08.475Z,993.60
2023-03-06T00:38:08.571Z,993.57
2023-03-06T00:39:08.641Z,993.56
2023-03-06T00:40:08.764Z,993.57
2023-03-06T00:41:08.823Z,993.51
2023-03-06T00:42:08.924Z,993.50
2023-03-06T00:43:08.996Z,993.49
2023-03-06T00:44:09.077Z,993.46
2023-03-06T00:45:09.166Z,993.44
2023-03-06T00:46:09.354Z,993.44
2023-03-06T00:47:09.327Z,993.44
2023-03-06T00:48:09.433Z,993.40
2023-03-06T00:49:09.478Z,993.38
2023-03-06T00:50:09.602Z,993.39
2023-03-06T00:51:12.038Z,993.40
2023-03-06T00:52:09.752Z,993.35
2023-03-06T00:53:09.821Z,993.36
2023-03-06T00:54:09.916Z,993.34
2023-03-06T00:55:10.004Z,993.33
2023-03-06T00:56:10.087Z,993.34
2023-03-06T00:57:10.185Z,993.30
2023-03-06T00:58:10.239Z,993.33
2023-03-06T00:59:10.315Z,993.29
2023-03-06T01:00:10.441Z,993.27
2023-03-06T01:01:10.573Z,993.25
2023-03-06T01:02:10.642Z,993.24
2023-03-06T01:03:10.668Z,993.24
2023-03-06T01:04:10.739Z,993.21
2023-03-06T01:05:10.853Z,993.22
2023-03-06T01:06:10.921Z,993.16
2023-03-06T01:07:10.969Z,993.16
2023-03-06T01:08:11.054Z,993.15
2023-03-06T01:09:11.111Z,993.16
2023-03-06T01:10:11.229Z,993.14
2023-03-06T01:11:11.301Z,993.13
2023-03-06T01:12:11.395Z,993.11
2023-03-06T01:13:11.470Z,993.15
2023-03-06T01:14:11.568Z,993.10
2023-03-06T01:15:11.667Z,993.10
2023-03-06T01:16:11.771Z,993.16
2023-03-06T01:17:11.813Z,993.13
2023-03-06T01:18:11.916Z,993.13
2023-03-06T01:19:11.984Z,993.11
2023-03-06T01:20:12.100Z,993.11
2023-03-06T01:21:12.171Z,993.10
2023-03-06T01:22:12.268Z,993.07
2023-03-06T01:23:12.335Z,993.08
2023-03-06T01:24:12.425Z,993.00
2023-03-06T01:25:12.516Z,992.98
2023-03-06T01:26:12.575Z,992.93
2023-03-06T01:27:12.625Z,992.95
2023-03-06T01:28:12.725Z,992.95
2023-03-06T01:29:12.801Z,992.92
2023-03-06T01:30:12.916Z,992.93
2023-03-06T01:31:12.988Z,992.88
2023-03-06T01:32:13.127Z,992.88
2023-03-06T01:33:13.133Z,992.87
2023-03-06T01:34:13.234Z,992.83
2023-03-06T01:35:13.351Z,992.83
2023-03-06T01:36:13.415Z,992.85
2023-03-06T01:37:13.499Z,992.84
2023-03-06T01:38:13.597Z,992.83
2023-03-06T01:39:13.659Z,992.78
2023-03-06T01:40:13.779Z,992.79
2023-03-06T01:41:13.824Z,992.79
2023-03-06T01:42:13.924Z,992.79
2023-03-06T01:43:13.996Z,992.75
2023-03-06T01:44:14.076Z,992.75
2023-03-06T01:45:14.204Z,992.72
2023-03-06T01:46:14.309Z,992.71
2023-03-06T01:47:14.324Z,992.69
2023-03-06T01:48:14.428Z,992.70
2023-03-06T01:49:14.479Z,992.71
2023-03-06T01:50:14.622Z,992.66
2023-03-06T01:51:14.668Z,992.67
2023-03-06T01:52:14.768Z,992.67
2023-03-06T01:53:14.843Z,992.63
2023-03-06T01:54:14.942Z,992.70
2023-03-06T01:55:15.024Z,992.64
2023-03-06T01:56:15.123Z,992.62
2023-03-06T01:57:15.196Z,992.59
2023-03-06T01:58:15.270Z,992.56
2023-03-06T01:59:15.339Z,992.54
2023-03-06T02:00:15.470Z,992.53
2023-03-06T02:01:15.595Z,992.54
2023-03-06T02:02:15.660Z,992.51
2023-03-06T02:03:15.696Z,992.53
2023-03-06T02:04:15.790Z,992.46
2023-03-06T02:05:15.884Z,992.49
2023-03-06T02:06:15.961Z,992.49
2023-03-06T02:07:16.042Z,992.51
2023-03-06T02:08:16.173Z,992.51
2023-03-06T02:09:16.222Z,992.50
2023-03-06T02:10:16.347Z,992.50
2023-03-06T02:11:16.405Z,992.48
2023-03-06T02:12:16.454Z,992.43
2023-03-06T02:13:16.526Z,992.44
2023-03-06T02:14:16.628Z,992.47
2023-03-06T02:15:16.710Z,992.41
2023-03-06T02:16:16.773Z,992.42
2023-03-06T02:17:16.862Z,992.39
2023-03-06T02:18:16.949Z,992.37
2023-03-06T02:19:17.025Z,992.40
2023-03-06T02:20:17.402Z,992.37
2023-03-06T02:21:17.201Z,992.39
2023-03-06T02:22:17.286Z,992.35
2023-03-06T02:23:17.361Z,992.33
2023-03-06T02:24:17.460Z,992.36
2023-03-06T02:25:17.571Z,992.32
2023-03-06T02:26:17.630Z,992.32
2023-03-06T02:27:17.702Z,992.31
2023-03-06T02:28:17.771Z,992.27
2023-03-06T02:29:17.847Z,992.26
2023-03-06T02:30:17.962Z,992.21
2023-03-06T02:31:18.062Z,992.25
2023-03-06T02:32:18.097Z,992.27
2023-03-06T02:33:18.187Z,992.24
2023-03-06T02:34:18.263Z,992.20
2023-03-06T02:35:18.350Z,992.24
2023-03-06T02:36:18.430Z,992.23
2023-03-06T02:37:18.505Z,992.23
2023-03-06T02:38:18.607Z,992.24
2023-03-06T02:39:18.688Z,992.22
2023-03-06T02:40:18.788Z,992.24
2023-03-06T02:41:18.814Z,992.20
2023-03-06T02:42:18.908Z,992.16
2023-03-06T02:43:18.977Z,992.17
2023-03-06T02:44:19.074Z,992.17
2023-03-06T02:45:19.162Z,992.17
2023-03-06T02:46:19.297Z,992.16
2023-03-06T02:47:19.310Z,992.17
2023-03-06T02:48:19.425Z,992.13
2023-03-06T02:49:19.483Z,992.12
2023-03-06T02:50:19.600Z,992.10
2023-03-06T02:51:19.656Z,992.10
2023-03-06T02:52:19.756Z,992.10
2023-03-06T02:53:19.836Z,992.09
2023-03-06T02:54:19.936Z,992.07
2023-03-06T02:55:20.030Z,992.08
2023-03-06T02:56:20.115Z,992.09
2023-03-06T02:57:20.190Z,992.08
2023-03-06T02:58:20.270Z,992.04
2023-03-06T02:59:20.363Z,992.07
2023-03-06T03:00:20.487Z,992.07
2023-03-06T03:01:20.565Z,992.06
2023-03-06T03:02:20.631Z,992.04
2023-03-06T03:03:20.709Z,992.03
2023-03-06T03:04:20.840Z,992.01
2023-03-06T03:05:20.930Z,992.03
2023-03-06T03:06:20.988Z,992.04
2023-03-06T03:07:21.063Z,992.03
2023-03-06T03:08:21.147Z,992.02
2023-03-06T03:09:21.220Z,992.02
2023-03-06T03:10:21.341Z,992.01
2023-03-06T03:11:21.360Z,992.05
2023-03-06T03:12:21.458Z,992.04
2023-03-06T03:13:21.533Z,992.01
2023-03-06T03:14:21.620Z,992.03
2023-03-06T03:15:21.705Z,992.03
2023-03-06T03:16:21.814Z,992.02
2023-03-06T03:17:21.849Z,992.01
2023-03-06T03:18:21.933Z,992.00
2023-03-06T03:19:22.014Z,991.98
2023-03-06T03:20:22.128Z,991.96
2023-03-06T03:21:22.202Z,991.97
2023-03-06T03:22:22.297Z,991.96
2023-03-06T03:23:22.380Z,991.94
2023-03-06T03:24:22.474Z,991.92
2023-03-06T03:25:22.555Z,991.94
2023-03-06T03:26:22.610Z,991.96
2023-03-06T03:27:22.684Z,991.95
2023-03-06T03:28:22.786Z,991.97
2023-03-06T03:29:22.870Z,991.91
2023-03-06T03:30:22.997Z,991.89
2023-03-06T03:31:23.136Z,991.89
2023-03-06T03:32:23.234Z,991.89
2023-03-06T03:33:23.212Z,991.92
2023-03-06T03:34:23.327Z,991.86
2023-03-06T03:35:23.486Z,991.87
2023-03-06T03:36:23.476Z,991.88
2023-03-06T03:37:23.546Z,991.87
2023-03-06T03:38:23.646Z,991.83
2023-03-06T03:39:23.718Z,991.84
2023-03-06T03:40:23.819Z,991.80
2023-03-06T03:41:23.914Z,991.82
2023-03-06T03:42:23.970Z,991.85
2023-03-06T03:43:24.043Z,991.83
2023-03-06T03:44:24.149Z,991.83
2023-03-06T03:45:24.255Z,991.78
2023-03-06T03:46:24.330Z,991.79
2023-03-06T03:47:24.388Z,991.78
2023-03-06T03:48:24.483Z,991.76
2023-03-06T03:49:24.560Z,991.79
2023-03-06T03:50:24.681Z,991.75
2023-03-06T03:51:24.712Z,991.71
2023-03-06T03:52:24.864Z,991.74
2023-03-06T03:53:24.846Z,991.72
2023-03-06T03:54:24.940Z,991.68
2023-03-06T03:55:25.021Z,991.70
2023-03-06T03:56:25.076Z,991.65
2023-03-06T03:57:25.176Z,991.62
2023-03-06T03:58:25.251Z,991.62
2023-03-06T03:59:25.339Z,991.61
2023-03-06T04:00:25.519Z,991.63
2023-03-06T04:01:25.501Z,991.61
2023-03-06T04:02:25.635Z,991.59
2023-03-06T04:03:25.673Z,991.60
2023-03-06T04:04:25.829Z,991.60
2023-03-06T04:05:25.873Z,991.60
2023-03-06T04:06:25.919Z,991.58
2023-03-06T04:07:26.019Z,991.57
2023-03-06T04:08:26.096Z,991.59
2023-03-06T04:09:26.194Z,991.58
2023-03-06T04:10:26.272Z,991.57
2023-03-06T04:11:26.323Z,991.58
2023-03-06T04:12:26.390Z,991.51
2023-03-06T04:13:26.468Z,991.54
2023-03-06T04:14:26.534Z,991.55
2023-03-06T04:15:26.655Z,991.54
2023-03-06T04:16:26.732Z,991.54
2023-03-06T04:17:26.797Z,991.51
2023-03-06T04:18:26.860Z,991.52
2023-03-06T04:19:26.960Z,991.52
2023-03-06T04:20:27.075Z,991.53
2023-03-06T04:21:27.123Z,991.47
2023-03-06T04:22:27.201Z,991.48
2023-03-06T04:23:27.294Z,991.48
2023-03-06T04:24:27.364Z,991.47
2023-03-06T04:25:27.475Z,991.45
2023-03-06T04:26:27.505Z,991.41
2023-03-06T04:27:27.628Z,991.44
2023-03-06T04:28:27.691Z,991.44
2023-03-06T04:29:27.785Z,991.45
2023-03-06T04:30:27.878Z,991.43
2023-03-06T04:31:27.969Z,991.40
2023-03-06T04:32:28.080Z,991.40
2023-03-06T04:33:28.100Z,991.42
2023-03-06T04:34:28.173Z,991.39
2023-03-06T04:35:28.297Z,991.36
2023-03-06T04:36:28.327Z,991.36
2023-03-06T04:37:28.399Z,991.36
2023-03-06T04:38:28.477Z,991.36
2023-03-06T04:39:28.568Z,991.35
2023-03-06T04:40:28.679Z,991.34
2023-03-06T04:41:28.732Z,991.32
2023-03-06T04:42:28.792Z,991.32
2023-03-06T04:43:28.900Z,991.31
2023-03-06T04:44:28.971Z,991.29
2023-03-06T04:45:29.143Z,991.28
2023-03-06T04:46:29.124Z,991.30
2023-03-06T04:47:29.219Z,991.26
2023-03-06T04:48:29.292Z,991.24
2023-03-06T04:49:29.385Z,991.20
2023-03-06T04:50:29.480Z,991.24
2023-03-06T04:51:29.558Z,991.22
2023-03-06T04:52:29.631Z,991.20
2023-03-06T04:53:29.715Z,991.19
2023-03-06T04:54:29.785Z,991.21
2023-03-06T04:55:29.922Z,991.20
2023-03-06T04:56:29.958Z,991.17
2023-03-06T04:57:30.059Z,991.13
2023-03-06T04:58:30.152Z,991.16
2023-03-06T04:59:30.240Z,991.13
2023-03-06T05:00:30.342Z,991.12
2023-03-06T05:01:30.402Z,991.16
2023-03-06T05:02:30.524Z,991.10
2023-03-06T05:03:30.565Z,991.11
2023-03-06T05:04:30.636Z,991.16
2023-03-06T05:05:30.749Z,991.08
2023-03-06T05:06:30.785Z,991.07
2023-03-06T05:07:30.862Z,991.08
2023-03-06T05:08:30.937Z,991.07
2023-03-06T05:09:31.037Z,991.03
2023-03-06T05:10:31.125Z,991.06
2023-03-06T05:11:31.189Z,991.08
2023-03-06T05:12:31.259Z,991.04
2023-03-06T05:13:31.365Z,991.04
2023-03-06T05:14:31.434Z,991.00
2023-03-06T05:15:31.547Z,991.05
2023-03-06T05:16:31.635Z,991.03
2023-03-06T05:17:31.717Z,991.03
2023-03-06T05:18:31.790Z,990.99
2023-03-06T05:19:31.902Z,990.99
2023-03-06T05:20:31.984Z,990.93
2023-03-06T05:21:32.037Z,990.96
2023-03-06T05:22:32.115Z,990.92
2023-03-06T05:23:32.216Z,990.91
2023-03-06T05:24:32.273Z,990.96
2023-03-06T05:25:32.390Z,990.96
2023-03-06T05:26:32.455Z,990.97
2023-03-06T05:27:32.546Z,990.94
2023-03-06T05:28:32.611Z,990.93
2023-03-06T05:29:32.708Z,990.94
2023-03-06T05:30:32.807Z,990.97
2023-03-06T05:31:32.949Z,990.99
2023-03-06T05:32:35.447Z,991.00
2023-03-06T05:33:32.996Z,990.99
2023-03-06T05:34:33.074Z,991.03
2023-03-06T05:35:33.197Z,991.02
2023-03-06T05:36:33.269Z,990.99
2023-03-06T05:37:33.373Z,990.99
2023-03-06T05:38:33.435Z,991.00
2023-03-06T05:39:33.524Z,991.04
2023-03-06T05:40:33.613Z,990.97
2023-03-06T05:41:33.686Z,990.97
2023-03-06T05:42:33.760Z,991.00
2023-03-06T05:43:33.865Z,991.00
2023-03-06T05:44:33.935Z,990.98
2023-03-06T05:45:34.071Z,990.99
2023-03-06T05:46:34.107Z,990.98
2023-03-06T05:47:34.193Z,990.96
2023-03-06T05:48:34.261Z,991.00
2023-03-06T05:49:34.356Z,990.97
2023-03-06T05:50:34.422Z,990.99
2023-03-06T05:51:34.491Z,990.99
2023-03-06T05:52:34.587Z,991.00
2023-03-06T05:53:34.662Z,991.00
2023-03-06T05:54:34.832Z,991.01
2023-03-06T05:55:34.898Z,991.01
2023-03-06T05:56:34.936Z,991.00
2023-03-06T05:57:34.998Z,991.00
2023-03-06T05:58:35.114Z,991.02
2023-03-06T05:59:35.166Z,990.96
2023-03-06T06:00:35.257Z,990.98
2023-03-06T06:01:35.325Z,991.00
2023-03-06T06:02:35.443Z,991.00
2023-03-06T06:03:35.514Z,991.02
2023-03-06T06:04:35.552Z,990.98
2023-03-06T06:05:35.672Z,990.99
2023-03-06T06:06:35.744Z,990.97
2023-03-06T06:07:35.847Z,991.02
2023-03-06T06:08:35.918Z,991.01
2023-03-06T06:09:36.018Z,991.01
2023-03-06T06:10:36.136Z,991.02
2023-03-06T06:11:36.174Z,990.97
2023-03-06T06:12:36.242Z,990.98
2023-03-06T06:13:36.364Z,990.98
2023-03-06T06:14:36.423Z,990.98
2023-03-06T06:15:36.572Z,991.00
2023-03-06T06:16:36.619Z,990.99
2023-03-06T06:17:36.722Z,991.01
2023-03-06T06:18:38.662Z,990.99
2023-03-06T06:19:36.912Z,990.97
2023-03-06T06:20:37.011Z,990.94
2023-03-06T06:21:37.093Z,991.02
2023-03-06T06:22:37.167Z,990.95
2023-03-06T06:23:37.252Z,990.99
2023-03-06T06:24:37.313Z,990.96
2023-03-06T06:25:37.411Z,990.91
2023-03-06T06:26:37.456Z,990.92
2023-03-06T06:27:37.552Z,990.94
2023-03-06T06:28:37.618Z,990.95
2023-03-06T06:29:37.697Z,990.92
2023-03-06T06:30:37.780Z,990.94
2023-03-06T06:31:37.839Z,990.93
2023-03-06T06:32:38.094Z,990.93
2023-03-06T06:33:37.998Z,990.98
2023-03-06T06:34:38.067Z,990.93
2023-03-06T06:35:38.179Z,990.96
2023-03-06T06:36:38.234Z,990.96
2023-03-06T06:37:38.306Z,990.99
2023-03-06T06:38:38.373Z,990.98
2023-03-06T06:39:38.467Z,990.98
2023-03-06T06:40:38.551Z,990.99
2023-03-06T06:41:55.235Z,990.98
2023-03-06T06:42:40.271Z,991.01
2023-03-06T06:43:38.783Z,991.00
2023-03-06T06:44:38.880Z,990.99
2023-03-06T06:45:38.980Z,991.00
2023-03-06T06:47:20.770Z,990.96
2023-03-06T06:47:39.135Z,990.98
2023-03-06T06:48:39.179Z,990.98
2023-03-06T06:49:39.282Z,991.02
2023-03-06T06:50:39.381Z,990.96
2023-03-06T06:51:39.444Z,990.99
2023-03-06T06:52:39.514Z,990.99
2023-03-06T06:53:39.586Z,991.01
2023-03-06T06:54:39.662Z,990.98
2023-03-06T06:55:39.783Z,991.00
2023-03-06T06:56:39.856Z,991.00
2023-03-06T06:57:39.960Z,991.01
2023-03-06T06:58:40.058Z,991.07
2023-03-06T06:59:40.109Z,991.02
2023-03-06T07:00:40.211Z,991.06
2023-03-06T07:01:40.284Z,991.06
2023-03-06T07:02:40.349Z,991.06
2023-03-06T07:03:40.458Z,991.03
2023-03-06T07:04:52.231Z,991.10
2023-03-06T07:05:40.630Z,991.10
2023-03-06T07:06:40.682Z,991.05
2023-03-06T07:07:40.758Z,991.11
2023-03-06T07:08:40.874Z,991.09
2023-03-06T07:09:40.930Z,991.10
2023-03-06T07:10:41.004Z,991.10
2023-03-06T07:11:41.085Z,991.18
2023-03-06T07:12:41.156Z,991.14
2023-03-06T07:13:41.235Z,991.14
2023-03-06T07:14:41.311Z,991.12
2023-03-06T07:15:41.436Z,991.14
2023-03-06T07:16:41.448Z,991.17
2023-03-06T07:17:41.522Z,991.16
2023-03-06T07:18:41.567Z,991.19
2023-03-06T07:19:41.696Z,991.18
2023-03-06T07:20:41.833Z,991.18
2023-03-06T07:21:41.831Z,991.17
2023-03-06T07:22:50.885Z,991.20
2023-03-06T07:23:41.998Z,991.18
2023-03-06T07:24:42.066Z,991.19
2023-03-06T07:25:42.154Z,991.20
2023-03-06T07:26:42.220Z,991.21
2023-03-06T07:27:42.309Z,991.23
2023-03-06T07:28:52.054Z,991.23
2023-03-06T07:29:42.454Z,991.22
2023-03-06T07:30:42.530Z,991.22
2023-03-06T07:31:42.595Z,991.23
2023-03-06T07:32:42.757Z,991.21
2023-03-06T07:33:42.752Z,991.21
2023-03-06T07:34:42.822Z,991.19
2023-03-06T07:35:42.998Z,991.22
2023-03-06T07:36:42.992Z,991.19
2023-03-06T07:37:43.092Z,991.21
2023-03-06T07:38:43.165Z,991.18
2023-03-06T07:39:43.263Z,991.20
2023-03-06T07:40:43.342Z,991.20
2023-03-06T07:41:43.449Z,991.21
2023-03-06T07:42:43.515Z,991.20
2023-03-06T07:43:43.620Z,991.17
2023-03-06T07:44:43.685Z,991.11
2023-03-06T07:45:43.787Z,991.11
2023-03-06T07:46:43.922Z,991.08
2023-03-06T07:47:43.921Z,991.10
2023-03-06T07:48:43.988Z,991.13
2023-03-06T07:49:44.077Z,991.10
2023-03-06T07:50:44.149Z,991.12
2023-03-06T07:51:44.237Z,991.13
2023-03-06T07:52:44.298Z,991.14
2023-03-06T07:53:44.383Z,991.16
2023-03-06T07:54:44.475Z,991.16
2023-03-06T07:55:44.626Z,991.13
2023-03-06T07:56:44.632Z,991.17
2023-03-06T07:57:44.723Z,991.17
2023-03-06T07:58:44.847Z,991.21
2023-03-06T07:59:44.909Z,991.22
2023-03-06T08:00:44.972Z,991.16
2023-03-06T08:01:45.041Z,991.16
2023-03-06T08:02:45.137Z,991.20
2023-03-06T08:03:45.286Z,991.19
2023-03-06T08:04:45.284Z,991.17
2023-03-06T08:05:45.532Z,991.18
2023-03-06T08:06:45.438Z,991.15
2023-03-06T08:07:45.551Z,991.20
2023-03-06T08:08:45.600Z,991.19
2023-03-06T08:09:45.715Z,991.22
2023-03-06T08:10:45.819Z,991.20
2023-03-06T08:11:45.861Z,991.23
2023-03-06T08:12:45.930Z,991.28
2023-03-06T08:13:45.986Z,991.27
2023-03-06T08:14:46.061Z,991.26
2023-03-06T08:15:46.138Z,991.27
2023-03-06T08:16:46.236Z,991.24
2023-03-06T08:17:46.281Z,991.18
2023-03-06T08:18:46.760Z,991.14
2023-03-06T08:19:46.421Z,991.17
2023-03-06T08:20:46.528Z,991.25
2023-03-06T08:21:46.579Z,991.20
2023-03-06T08:22:46.646Z,991.19
2023-03-06T08:23:46.727Z,991.21
2023-03-06T08:24:46.808Z,991.20
2023-03-06T08:25:46.882Z,991.11
2023-03-06T08:26:46.964Z,991.18
2023-03-06T08:27:47.033Z,991.14
2023-03-06T08:28:47.121Z,991.12
2023-03-06T08:29:47.219Z,991.16
2023-03-06T08:30:47.274Z,991.17
2023-03-06T08:31:47.439Z,991.13
2023-03-06T08:32:47.473Z,991.19
2023-03-06T08:33:47.524Z,991.16
2023-03-06T08:34:47.583Z,991.16
2023-03-06T08:35:47.698Z,991.16
2023-03-06T08:36:47.711Z,991.19
2023-03-06T08:37:47.804Z,991.14
2023-03-06T08:38:47.883Z,991.19
2023-03-06T08:39:47.983Z,991.16
2023-03-06T08:40:48.068Z,991.18
2023-03-06T08:41:48.161Z,991.19
2023-03-06T08:42:48.222Z,991.14
2023-03-06T08:43:48.324Z,991.16
2023-03-06T08:44:48.398Z,991.15
2023-03-06T08:45:48.531Z,991.17
2023-03-06T08:46:48.590Z,991.20
2023-03-06T08:47:48.658Z,991.20
2023-03-06T08:48:48.727Z,991.19
2023-03-06T08:49:48.817Z,991.18
2023-03-06T08:50:48.908Z,991.23
2023-03-06T08:51:48.961Z,991.18
2023-03-06T08:52:49.026Z,991.17
2023-03-06T08:53:49.129Z,991.26
2023-03-06T08:54:49.200Z,991.20
2023-03-06T08:55:49.310Z,991.23
2023-03-06T08:56:49.343Z,991.24
2023-03-06T08:57:49.452Z,991.25
2023-03-06T08:58:49.516Z,991.22
2023-03-06T08:59:49.619Z,991.21
2023-03-06T09:00:49.866Z,991.22
2023-03-06T09:01:49.788Z,991.22
2023-03-06T09:02:49.885Z,991.23
2023-03-06T09:03:49.942Z,991.23
2023-03-06T09:04:50.044Z,991.21
2023-03-06T09:05:50.141Z,991.23
2023-03-06T09:06:50.185Z,991.27
2023-03-06T09:07:50.267Z,991.23
2023-03-06T09:08:50.332Z,991.25
2023-03-06T09:09:50.417Z,991.20
2023-03-06T09:10:50.564Z,991.22
2023-03-06T09:11:50.579Z,991.19
2023-03-06T09:12:53.125Z,991.17
2023-03-06T09:13:50.750Z,991.14
2023-03-06T09:14:50.809Z,991.16
2023-03-06T09:15:50.909Z,991.18
2023-03-06T09:16:51.006Z,991.15
2023-03-06T09:17:51.101Z,991.20
2023-03-06T09:18:51.126Z,991.24
2023-03-06T09:19:51.220Z,991.20
2023-03-06T09:20:51.331Z,991.19
2023-03-06T09:21:51.390Z,991.15
2023-03-06T09:22:51.463Z,991.18
2023-03-06T09:23:51.550Z,991.16
2023-03-06T09:24:51.617Z,991.19
2023-03-06T09:25:51.735Z,991.18
2023-03-06T09:26:51.894Z,991.20
2023-03-06T09:28:08.692Z,991.19
2023-03-06T09:28:51.939Z,991.22
2023-03-06T09:29:52.089Z,991.19
2023-03-06T09:30:52.208Z,991.21
2023-03-06T09:31:52.210Z,991.18
2023-03-06T09:32:52.282Z,991.22
2023-03-06T09:33:52.385Z,991.18
2023-03-06T09:34:52.458Z,991.20
2023-03-06T09:35:52.644Z,991.18
2023-03-06T09:36:57.349Z,991.15
2023-03-06T09:37:52.719Z,991.18
2023-03-06T09:38:52.781Z,991.17
2023-03-06T09:39:52.872Z,991.19
2023-03-06T09:40:52.972Z,991.23
2023-03-06T09:41:53.031Z,991.20
2023-03-06T09:42:53.094Z,991.17
2023-03-06T09:43:53.186Z,991.19
2023-03-06T09:44:53.286Z,991.20
2023-03-06T09:45:53.390Z,991.19
2023-03-06T09:46:53.426Z,991.18
2023-03-06T09:47:53.514Z,991.15
2023-03-06T09:48:53.577Z,991.16
2023-03-06T09:49:53.653Z,991.14
2023-03-06T09:50:53.745Z,991.17
2023-03-06T09:51:53.837Z,991.19
2023-03-06T09:52:53.902Z,991.18
2023-03-06T09:53:53.997Z,991.20
2023-03-06T09:54:54.067Z,991.19
2023-03-06T09:55:54.173Z,991.18
2023-03-06T09:56:54.232Z,991.20
2023-03-06T09:57:54.326Z,991.21
2023-03-06T09:58:54.389Z,991.18
2023-03-06T09:59:54.500Z,991.18
2023-03-06T10:00:54.566Z,991.22
2023-03-06T10:01:54.651Z,991.18
2023-03-06T10:02:54.879Z,991.23
2023-03-06T10:03:54.805Z,991.26
2023-03-06T10:04:54.941Z,991.21
2023-03-06T10:05:54.981Z,991.19
2023-03-06T10:06:55.042Z,991.23
2023-03-06T10:07:55.141Z,991.23
2023-03-06T10:08:55.210Z,991.24
2023-03-06T10:09:55.295Z,991.24
2023-03-06T10:10:55.388Z,991.25
2023-03-06T10:11:55.451Z,991.23
2023-03-06T10:12:55.520Z,991.28
2023-03-06T10:13:55.622Z,991.24
2023-03-06T10:14:55.690Z,991.27
2023-03-06T10:15:55.842Z,991.19
2023-03-06T10:16:55.870Z,991.25
2023-03-06T10:17:55.965Z,991.16
2023-03-06T10:18:56.021Z,991.18
2023-03-06T10:19:56.114Z,991.14
2023-03-06T10:20:56.194Z,991.14
2023-03-06T10:21:56.268Z,991.16
2023-03-06T10:23:01.087Z,991.19
2023-03-06T10:23:56.403Z,991.14
2023-03-06T10:24:56.458Z,991.16
2023-03-06T10:25:56.575Z,991.17
2023-03-06T10:26:56.738Z,991.16
2023-03-06T10:27:56.737Z,991.16
2023-03-06T10:28:56.797Z,991.10
2023-03-06T10:30:03.115Z,991.12
2023-03-06T10:30:57.003Z,991.12
2023-03-06T10:31:57.022Z,991.11
2023-03-06T10:32:57.114Z,991.08
2023-03-06T10:33:57.228Z,991.13
2023-03-06T10:34:57.306Z,991.07
2023-03-06T10:35:57.508Z,991.09
2023-03-06T10:36:57.460Z,991.13
2023-03-06T10:37:57.545Z,991.10
2023-03-06T10:38:57.631Z,991.08
2023-03-06T10:39:57.726Z,991.12
2023-03-06T10:40:57.793Z,991.11
2023-03-06T10:41:57.868Z,991.14
2023-03-06T10:43:10.779Z,991.16
2023-03-06T10:43:58.049Z,991.13
2023-03-06T10:44:58.102Z,991.14
2023-03-06T10:45:58.239Z,991.12
2023-03-06T10:46:58.255Z,991.15
2023-03-06T10:47:58.337Z,991.17
2023-03-06T10:48:58.410Z,991.13
2023-03-06T10:49:58.523Z,991.15
2023-03-06T10:50:59.711Z,991.15
2023-03-06T10:51:58.649Z,991.14
2023-03-06T10:52:58.710Z,991.13
2023-03-06T10:53:58.798Z,991.11
2023-03-06T10:54:58.866Z,991.09
2023-03-06T10:55:58.954Z,991.12
2023-03-06T10:56:59.007Z,991.11
2023-03-06T10:57:59.107Z,991.14
2023-03-06T10:58:59.188Z,991.12
2023-03-06T10:59:59.300Z,991.12
2023-03-06T11:00:59.374Z,991.13
2023-03-06T11:01:59.530Z,991.15
2023-03-06T11:02:59.515Z,991.14
2023-03-06T11:03:59.621Z,991.14
2023-03-06T11:04:59.687Z,991.16
2023-03-06T11:05:59.820Z,991.10
2023-03-06T11:06:59.917Z,991.21
2023-03-06T11:07:59.992Z,991.19
2023-03-06T11:08:59.998Z,991.18
2023-03-06T11:10:00.120Z,991.16
2023-03-06T11:11:00.174Z,991.13
2023-03-06T11:12:00.254Z,991.14
2023-03-06T11:13:00.315Z,991.12
2023-03-06T11:14:00.412Z,991.09
2023-03-06T11:15:00.481Z,991.08
2023-03-06T11:16:00.656Z,991.07
2023-03-06T11:17:00.675Z,991.09
2023-03-06T11:18:00.778Z,991.09
2023-03-06T11:19:00.833Z,991.06
2023-03-06T11:20:00.920Z,991.02
2023-03-06T11:21:01.007Z,991.04
2023-03-06T11:22:01.056Z,991.00
2023-03-06T11:23:01.111Z,991.02
2023-03-06T11:24:01.188Z,991.01
2023-03-06T11:25:01.456Z,991.00
2023-03-06T11:26:01.341Z,991.04
2023-03-06T11:27:01.403Z,991.00
2023-03-06T11:28:01.488Z,990.98
2023-03-06T11:29:01.595Z,991.03
2023-03-06T11:30:01.644Z,991.04
2023-03-06T11:31:01.805Z,990.98
2023-03-06T11:32:01.855Z,991.02
2023-03-06T11:33:01.857Z,991.03
2023-03-06T11:34:01.938Z,990.98
2023-03-06T11:35:02.085Z,990.97
2023-03-06T11:36:02.114Z,991.01
2023-03-06T11:37:02.167Z,991.00
2023-03-06T11:38:02.252Z,990.95
2023-03-06T11:39:02.322Z,990.97
2023-03-06T11:40:02.423Z,990.99
2023-03-06T11:41:02.498Z,990.96
2023-03-06T11:42:02.562Z,990.96
2023-03-06T11:43:02.697Z,990.98
2023-03-06T11:44:02.740Z,990.95
2023-03-06T11:45:03.291Z,990.93
2023-03-06T11:46:02.900Z,990.91
2023-03-06T11:47:03.024Z,990.93
2023-03-06T11:48:03.050Z,990.93
2023-03-06T11:49:03.103Z,990.92
2023-03-06T11:50:03.191Z,990.88
2023-03-06T11:51:03.917Z,990.89
2023-03-06T11:52:03.338Z,990.91
2023-03-06T11:53:03.407Z,990.89
2023-03-06T11:54:03.488Z,990.83
2023-03-06T11:55:03.569Z,990.87
2023-03-06T11:56:03.674Z,990.82
2023-03-06T11:57:03.693Z,990.82
2023-03-06T11:58:03.768Z,990.80
2023-03-06T11:59:03.863Z,990.81
2023-03-06T12:00:03.946Z,990.80
2023-03-06T12:01:04.062Z,990.78
2023-03-06T12:02:04.166Z,990.77
2023-03-06T12:03:04.206Z,990.76
2023-03-06T12:04:04.283Z,990.73
2023-03-06T12:05:04.398Z,990.80
2023-03-06T12:06:04.485Z,990.78
2023-03-06T12:07:07.219Z,990.71
2023-03-06T12:08:04.636Z,990.75
2023-03-06T12:09:04.710Z,990.75
2023-03-06T12:10:05.874Z,990.70
2023-03-06T12:11:04.897Z,990.66
2023-03-06T12:12:04.976Z,990.69
2023-03-06T12:13:05.055Z,990.68
2023-03-06T12:14:05.152Z,990.67
2023-03-06T12:15:05.279Z,990.70
2023-03-06T12:16:05.398Z,990.68
2023-03-06T12:17:05.417Z,990.68
2023-03-06T12:18:05.489Z,990.71
2023-03-06T12:19:05.582Z,990.66
2023-03-06T12:20:05.657Z,990.66
2023-03-06T12:21:05.740Z,990.65
2023-03-06T12:22:05.813Z,990.63
2023-03-06T12:23:15.119Z,990.66
2023-03-06T12:24:06.006Z,990.65
2023-03-06T12:25:06.058Z,990.64
2023-03-06T12:26:06.150Z,990.66
2023-03-06T12:27:06.203Z,990.68
2023-03-06T12:28:06.285Z,990.63
2023-03-06T12:29:06.396Z,990.65